Altro, Kentucky
Current Conditions -  °F | °C
As of 4:53 AM on Friday 28 Nov 2014 (Local Time) from KJKL Reporting Station
Overcast Overcast  
Wind Chill: -3°   Ceiling: 2300
Heat Index: -3°   Visibility: 10mi
Dew Point: -9°   Wind: 0mph
Humidity: 63%   Direction: NA
Pressure: 30.36"   Gusts: NA
Location:  37.532°N, 83.3068°W
Report Text: KJKL 280953Z AUTO 00000KT 10SM OVC023 M03/M09 A3036 RMK AO2 SLP295 T10281089
Loading
Personal Weather Stations






























Interactive Weather Map New forecast layout! Learn more

10-Day Weather Forecast

Advertisements
Track Severe Weather on mobile